createdAt,value
2023-03-06T00:00:00.090Z,3.3
2023-03-06T00:00:59.712Z,3.4
2023-03-06T00:01:59.316Z,3.3
2023-03-06T00:02:59.883Z,3.3
2023-03-06T00:03:59.504Z,3.2
2023-03-06T00:05:00.052Z,3.3
2023-03-06T00:05:59.726Z,3.3
2023-03-06T00:06:59.215Z,3.3
2023-03-06T00:07:59.822Z,3.4
2023-03-06T00:08:59.417Z,3.4
2023-03-06T00:10:00.010Z,3.4
2023-03-06T00:10:59.621Z,3.3
2023-03-06T00:11:59.183Z,3.2
2023-03-06T00:12:59.769Z,3.3
2023-03-06T00:13:59.372Z,3.3
2023-03-06T00:14:59.968Z,3.3
2023-03-06T00:15:59.607Z,3.3
2023-03-06T00:17:00.145Z,3.3
2023-03-06T00:17:59.736Z,3.3
2023-03-06T00:18:59.329Z,3.3
2023-03-06T00:19:59.910Z,3.4
2023-03-06T00:20:59.520Z,3.3
2023-03-06T00:22:00.106Z,3.3
2023-03-06T00:22:59.702Z,3.3
2023-03-06T00:23:59.288Z,3.3
2023-03-06T00:24:59.875Z,3.3
2023-03-06T00:25:59.490Z,3.3
2023-03-06T00:27:00.039Z,3.3
2023-03-06T00:27:59.635Z,3.2
2023-03-06T00:28:59.218Z,3.2
2023-03-06T00:29:59.880Z,3.2
2023-03-06T00:30:59.495Z,3.2
2023-03-06T00:32:00.134Z,3.1
2023-03-06T00:32:59.692Z,3.2
2023-03-06T00:33:59.267Z,3.2
2023-03-06T00:34:59.844Z,3.2
2023-03-06T00:35:59.477Z,3.1
2023-03-06T00:37:00.012Z,3.1
2023-03-06T00:37:59.662Z,3.1
2023-03-06T00:38:59.184Z,3.1
2023-03-06T00:39:59.765Z,3.1
2023-03-06T00:40:59.389Z,3.1
2023-03-06T00:41:59.934Z,3.1
2023-03-06T00:42:59.524Z,3.1
2023-03-06T00:44:00.162Z,3.1
2023-03-06T00:44:59.756Z,3.1
2023-03-06T00:45:59.423Z,3.2
2023-03-06T00:46:59.969Z,3.1
2023-03-06T00:47:59.559Z,3.1
2023-03-06T00:49:00.148Z,3.1
2023-03-06T00:49:59.746Z,3.1
2023-03-06T00:50:59.346Z,3.1
2023-03-06T00:51:59.943Z,3.1
2023-03-06T00:52:59.558Z,3.1
2023-03-06T00:54:00.161Z,3.1
2023-03-06T00:54:59.762Z,3.2
2023-03-06T00:55:59.344Z,3.2
2023-03-06T00:56:59.931Z,3.2
2023-03-06T00:57:59.527Z,3.2
2023-03-06T00:59:00.130Z,3.2
2023-03-06T00:59:59.725Z,3.2
2023-03-06T01:00:59.322Z,3.2
2023-03-06T01:01:59.941Z,3.2
2023-03-06T01:02:59.575Z,3.2
2023-03-06T01:04:00.156Z,3.1
2023-03-06T01:04:59.747Z,3.2
2023-03-06T01:05:59.350Z,3.2
2023-03-06T01:06:59.926Z,3.1
2023-03-06T01:07:59.516Z,3.2
2023-03-06T01:09:00.121Z,3.1
2023-03-06T01:09:59.709Z,3.2
2023-03-06T01:10:59.317Z,3.2
2023-03-06T01:11:59.879Z,3.2
2023-03-06T01:12:59.475Z,3.2
2023-03-06T01:14:00.061Z,3.2
2023-03-06T01:14:59.662Z,3.2
2023-03-06T01:15:59.265Z,3.2
2023-03-06T01:16:59.819Z,3.3
2023-03-06T01:17:59.406Z,3.3
2023-03-06T01:19:00.012Z,3.3
2023-03-06T01:19:59.612Z,3.3
2023-03-06T01:20:59.215Z,3.4
2023-03-06T01:21:59.789Z,3.3
2023-03-06T01:22:59.384Z,3.3
2023-03-06T01:23:59.955Z,3.3
2023-03-06T01:24:59.557Z,3.3
2023-03-06T01:26:00.156Z,3.3
2023-03-06T01:26:59.756Z,3.3
2023-03-06T01:27:59.354Z,3.3
2023-03-06T01:28:59.939Z,3.4
2023-03-06T01:29:59.626Z,3.3
2023-03-06T01:31:00.121Z,3.3
2023-03-06T01:31:59.893Z,3.3
2023-03-06T01:32:59.358Z,3.3
2023-03-06T01:34:00.053Z,3.3
2023-03-06T01:34:59.573Z,3.3
2023-03-06T01:36:00.132Z,3.3
2023-03-06T01:36:59.745Z,3.3
2023-03-06T01:37:59.335Z,3.2
2023-03-06T01:38:59.913Z,3.3
2023-03-06T01:39:59.500Z,3.3
2023-03-06T01:41:00.100Z,3.3
2023-03-06T01:41:59.724Z,3.2
2023-03-06T01:42:59.329Z,3.2
2023-03-06T01:43:59.891Z,3.3
2023-03-06T01:44:59.485Z,3.3
2023-03-06T01:46:00.177Z,3.3
2023-03-06T01:46:59.786Z,3.4
2023-03-06T01:47:59.327Z,3.4
2023-03-06T01:48:59.887Z,3.3
2023-03-06T01:49:59.476Z,3.3
2023-03-06T01:51:00.098Z,3.3
2023-03-06T01:51:59.690Z,3.2
2023-03-06T01:52:59.313Z,3.3
2023-03-06T01:53:59.860Z,3.2
2023-03-06T01:54:59.464Z,3.3
2023-03-06T01:56:00.040Z,3.2
2023-03-06T01:56:59.633Z,3.1
2023-03-06T01:57:59.221Z,3.2
2023-03-06T01:58:59.786Z,3.1
2023-03-06T01:59:59.395Z,3.1
2023-03-06T02:01:00.205Z,3.1
2023-03-06T02:01:59.637Z,3.1
2023-03-06T02:02:59.204Z,3.1
2023-03-06T02:03:59.799Z,3.1
2023-03-06T02:04:59.429Z,3.1
2023-03-06T02:06:00.010Z,3.1
2023-03-06T02:06:59.651Z,3.1
2023-03-06T02:07:59.179Z,3
2023-03-06T02:08:59.770Z,3.1
2023-03-06T02:09:59.369Z,3
2023-03-06T02:10:59.947Z,3
2023-03-06T02:11:59.537Z,3.1
2023-03-06T02:13:00.125Z,3
2023-03-06T02:13:59.738Z,3
2023-03-06T02:14:59.330Z,3.1
2023-03-06T02:15:59.910Z,3.2
2023-03-06T02:16:59.595Z,3.2
2023-03-06T02:18:00.115Z,3.2
2023-03-06T02:18:59.731Z,3.2
2023-03-06T02:19:59.317Z,3.1
2023-03-06T02:20:59.907Z,3.2
2023-03-06T02:21:59.491Z,3.2
2023-03-06T02:23:00.115Z,3.1
2023-03-06T02:23:59.727Z,3.2
2023-03-06T02:24:59.285Z,3.1
2023-03-06T02:25:59.854Z,3.1
2023-03-06T02:26:59.449Z,3.1
2023-03-06T02:28:00.035Z,3
2023-03-06T02:28:59.668Z,3.1
2023-03-06T02:29:59.220Z,3.2
2023-03-06T02:30:59.938Z,3.1
2023-03-06T02:31:59.540Z,3.1
2023-03-06T02:33:00.050Z,3.2
2023-03-06T02:33:59.670Z,3.1
2023-03-06T02:34:59.247Z,3.1
2023-03-06T02:35:59.866Z,3.2
2023-03-06T02:36:59.484Z,3.3
2023-03-06T02:38:00.053Z,3.3
2023-03-06T02:38:59.690Z,3.3
2023-03-06T02:39:59.494Z,3.3
2023-03-06T02:40:59.800Z,3.3
2023-03-06T02:41:59.718Z,3.3
2023-03-06T02:42:59.965Z,3.3
2023-03-06T02:43:59.720Z,3.2
2023-03-06T02:45:00.184Z,3.2
2023-03-06T02:45:59.810Z,3.2
2023-03-06T02:46:59.370Z,3.2
2023-03-06T02:48:00.013Z,3.2
2023-03-06T02:48:59.587Z,3.2
2023-03-06T02:49:59.191Z,3.1
2023-03-06T02:50:59.781Z,3.1
2023-03-06T02:51:59.382Z,3.1
2023-03-06T02:52:59.955Z,3.1
2023-03-06T02:53:59.544Z,3
2023-03-06T02:55:00.173Z,3
2023-03-06T02:55:59.776Z,3.1
2023-03-06T02:56:59.351Z,3.1
2023-03-06T02:57:59.934Z,3.1
2023-03-06T02:58:59.522Z,3.1
2023-03-06T03:00:00.144Z,3.1
2023-03-06T03:00:59.748Z,3
2023-03-06T03:01:59.339Z,3
2023-03-06T03:02:59.927Z,3
2023-03-06T03:03:59.520Z,3
2023-03-06T03:05:00.152Z,3.1
2023-03-06T03:05:59.744Z,3
2023-03-06T03:06:59.331Z,3
2023-03-06T03:07:59.926Z,3
2023-03-06T03:08:59.515Z,3.1
2023-03-06T03:10:00.189Z,3
2023-03-06T03:10:59.834Z,3
2023-03-06T03:11:59.342Z,3
2023-03-06T03:12:59.916Z,2.9
2023-03-06T03:13:59.507Z,2.9
2023-03-06T03:15:00.126Z,2.9
2023-03-06T03:15:59.752Z,3
2023-03-06T03:16:59.329Z,3
2023-03-06T03:17:59.919Z,3
2023-03-06T03:18:59.517Z,3
2023-03-06T03:20:00.144Z,3
2023-03-06T03:20:59.748Z,3.1
2023-03-06T03:21:59.337Z,3.1
2023-03-06T03:22:59.924Z,3
2023-03-06T03:23:59.536Z,3
2023-03-06T03:25:00.110Z,3
2023-03-06T03:25:59.701Z,3
2023-03-06T03:26:59.325Z,2.9
2023-03-06T03:27:59.887Z,3
2023-03-06T03:28:59.503Z,3
2023-03-06T03:30:00.071Z,3
2023-03-06T03:30:59.810Z,3
2023-03-06T03:31:59.372Z,2.9
2023-03-06T03:32:59.867Z,2.9
2023-03-06T03:33:59.478Z,2.9
2023-03-06T03:35:00.043Z,2.9
2023-03-06T03:35:59.650Z,2.9
2023-03-06T03:36:59.215Z,2.9
2023-03-06T03:37:59.785Z,2.9
2023-03-06T03:38:59.406Z,2.9
2023-03-06T03:39:59.958Z,2.9
2023-03-06T03:40:59.548Z,2.9
2023-03-06T03:42:00.138Z,2.8
2023-03-06T03:42:59.751Z,2.9
2023-03-06T03:43:59.368Z,2.9
2023-03-06T03:44:59.915Z,2.9
2023-03-06T03:45:59.512Z,2.9
2023-03-06T03:47:00.124Z,2.9
2023-03-06T03:47:59.724Z,2.9
2023-03-06T03:48:59.325Z,2.8
2023-03-06T03:49:59.897Z,2.8
2023-03-06T03:50:59.487Z,2.8
2023-03-06T03:52:00.061Z,2.8
2023-03-06T03:52:59.648Z,2.8
2023-03-06T03:53:59.242Z,2.9
2023-03-06T03:54:59.795Z,2.8
2023-03-06T03:55:59.385Z,2.9
2023-03-06T03:56:59.969Z,2.9
2023-03-06T03:57:59.566Z,2.9
2023-03-06T03:58:59.197Z,2.8
2023-03-06T03:59:59.749Z,2.9
2023-03-06T04:00:59.355Z,2.9
2023-03-06T04:02:00.056Z,2.9
2023-03-06T04:02:59.571Z,2.9
2023-03-06T04:04:00.148Z,2.9
2023-03-06T04:04:59.790Z,2.9
2023-03-06T04:05:59.395Z,2.8
2023-03-06T04:06:59.953Z,2.9
2023-03-06T04:07:59.545Z,2.9
2023-03-06T04:09:00.125Z,2.8
2023-03-06T04:09:59.707Z,2.8
2023-03-06T04:10:59.314Z,2.8
2023-03-06T04:11:59.889Z,2.9
2023-03-06T04:12:59.482Z,2.8
2023-03-06T04:14:00.053Z,2.9
2023-03-06T04:14:59.676Z,2.9
2023-03-06T04:15:59.573Z,2.8
2023-03-06T04:16:59.822Z,2.9
2023-03-06T04:17:59.413Z,2.9
2023-03-06T04:18:59.983Z,2.8
2023-03-06T04:19:59.575Z,2.8
2023-03-06T04:20:59.155Z,2.8
2023-03-06T04:21:59.778Z,2.9
2023-03-06T04:22:59.374Z,2.9
2023-03-06T04:23:59.968Z,2.8
2023-03-06T04:24:59.571Z,2.8
2023-03-06T04:26:00.152Z,2.9
2023-03-06T04:26:59.748Z,2.8
2023-03-06T04:27:59.340Z,2.8
2023-03-06T04:28:59.940Z,2.8
2023-03-06T04:29:59.547Z,2.9
2023-03-06T04:31:00.151Z,2.9
2023-03-06T04:31:59.989Z,2.9
2023-03-06T04:32:59.356Z,2.8
2023-03-06T04:33:59.948Z,2.8
2023-03-06T04:34:59.538Z,2.8
2023-03-06T04:36:00.143Z,2.9
2023-03-06T04:36:59.736Z,2.9
2023-03-06T04:37:59.321Z,2.9
2023-03-06T04:39:00.000Z,2.9
2023-03-06T04:39:59.563Z,2.8
2023-03-06T04:41:00.149Z,2.8
2023-03-06T04:41:59.950Z,2.8
2023-03-06T04:42:59.374Z,2.8
2023-03-06T04:43:59.946Z,2.8
2023-03-06T04:44:59.564Z,2.8
2023-03-06T04:46:00.211Z,2.8
2023-03-06T04:46:59.896Z,2.8
2023-03-06T04:47:59.360Z,2.8
2023-03-06T04:48:59.923Z,2.8
2023-03-06T04:49:59.543Z,2.8
2023-03-06T04:51:00.124Z,2.7
2023-03-06T04:51:59.710Z,2.7
2023-03-06T04:52:59.304Z,2.7
2023-03-06T04:53:59.913Z,2.6
2023-03-06T04:54:59.500Z,2.7
2023-03-06T04:56:00.122Z,2.6
2023-03-06T04:56:59.722Z,2.6
2023-03-06T04:57:59.309Z,2.7
2023-03-06T04:58:59.906Z,2.6
2023-03-06T04:59:59.518Z,2.6
2023-03-06T05:01:00.159Z,2.6
2023-03-06T05:01:59.779Z,2.5
2023-03-06T05:02:59.349Z,2.5
2023-03-06T05:03:59.909Z,2.5
2023-03-06T05:04:59.501Z,2.4
2023-03-06T05:06:00.123Z,2.4
2023-03-06T05:06:59.727Z,2.4
2023-03-06T05:07:59.319Z,2.3
2023-03-06T05:08:59.901Z,2.3
2023-03-06T05:09:59.486Z,2.3
2023-03-06T05:11:00.092Z,2.3
2023-03-06T05:11:59.685Z,2.3
2023-03-06T05:12:59.254Z,2.4
2023-03-06T05:13:59.837Z,2.4
2023-03-06T05:14:59.425Z,2.3
2023-03-06T05:16:00.036Z,2.3
2023-03-06T05:16:59.626Z,2.3
2023-03-06T05:17:59.195Z,2.3
2023-03-06T05:18:59.808Z,2.2
2023-03-06T05:19:59.401Z,2.2
2023-03-06T05:21:00.061Z,2.1
2023-03-06T05:21:59.668Z,2.2
2023-03-06T05:22:59.231Z,2.1
2023-03-06T05:23:59.810Z,2
2023-03-06T05:24:59.411Z,2.1
2023-03-06T05:25:59.995Z,2.1
2023-03-06T05:26:59.600Z,2.1
2023-03-06T05:27:59.193Z,2.2
2023-03-06T05:28:59.756Z,2.2
2023-03-06T05:29:59.359Z,2.2
2023-03-06T05:31:01.680Z,2.2
2023-03-06T05:31:59.519Z,2.2
2023-03-06T05:32:59.253Z,2
2023-03-06T05:33:59.729Z,2.1
2023-03-06T05:34:59.348Z,2.1
2023-03-06T05:35:59.935Z,2.1
2023-03-06T05:36:59.550Z,2
2023-03-06T05:38:00.156Z,2
2023-03-06T05:38:59.742Z,2
2023-03-06T05:39:59.343Z,2
2023-03-06T05:40:59.904Z,2
2023-03-06T05:41:59.521Z,1.9
2023-03-06T05:43:00.105Z,1.9
2023-03-06T05:43:59.690Z,1.9
2023-03-06T05:44:59.281Z,1.9
2023-03-06T05:45:59.915Z,1.9
2023-03-06T05:46:59.539Z,1.9
2023-03-06T05:48:00.115Z,1.9
2023-03-06T05:48:59.701Z,1.9
2023-03-06T05:49:59.295Z,1.9
2023-03-06T05:50:59.887Z,1.9
2023-03-06T05:51:59.499Z,1.9
2023-03-06T05:53:00.050Z,1.9
2023-03-06T05:53:59.667Z,1.9
2023-03-06T05:54:59.219Z,2
2023-03-06T05:55:59.796Z,2
2023-03-06T05:56:59.387Z,2.1
2023-03-06T05:57:59.976Z,2.1
2023-03-06T05:58:59.592Z,2
2023-03-06T05:59:59.155Z,2
2023-03-06T06:00:59.746Z,2
2023-03-06T06:01:59.391Z,2
2023-03-06T06:02:59.927Z,2
2023-03-06T06:03:59.522Z,2
2023-03-06T06:05:00.108Z,2
2023-03-06T06:05:59.726Z,2
2023-03-06T06:06:59.361Z,2.1
2023-03-06T06:07:59.893Z,2.1
2023-03-06T06:08:59.483Z,2.1
2023-03-06T06:10:01.247Z,2.2
2023-03-06T06:10:59.614Z,2.1
2023-03-06T06:11:59.204Z,2.1
2023-03-06T06:12:59.773Z,2.2
2023-03-06T06:13:59.362Z,2.3
2023-03-06T06:14:59.937Z,2.3
2023-03-06T06:15:59.615Z,2.3
2023-03-06T06:17:00.128Z,2.3
2023-03-06T06:17:59.734Z,2.4
2023-03-06T06:18:59.324Z,2.4
2023-03-06T06:19:59.913Z,2.4
2023-03-06T06:20:59.533Z,2.4
2023-03-06T06:22:00.132Z,2.5
2023-03-06T06:22:59.759Z,2.4
2023-03-06T06:23:59.330Z,2.5
2023-03-06T06:24:59.897Z,2.4
2023-03-06T06:25:59.484Z,2.4
2023-03-06T06:27:02.634Z,2.4
2023-03-06T06:27:59.640Z,2.4
2023-03-06T06:29:00.320Z,2.4
2023-03-06T06:29:59.992Z,2.4
2023-03-06T06:30:59.503Z,2.5
2023-03-06T06:32:00.186Z,2.5
2023-03-06T06:32:59.825Z,2.4
2023-03-06T06:33:59.278Z,2.5
2023-03-06T06:34:59.866Z,2.4
2023-03-06T06:35:59.589Z,2.5
2023-03-06T06:37:00.040Z,2.4
2023-03-06T06:37:59.649Z,2.5
2023-03-06T06:38:59.235Z,2.4
2023-03-06T06:39:59.801Z,2.4
2023-03-06T06:41:30.975Z,2.4
2023-03-06T06:42:21.035Z,2.3
2023-03-06T06:42:59.514Z,2.3
2023-03-06T06:44:00.128Z,2.3
2023-03-06T06:44:59.714Z,2.4
2023-03-06T06:46:15.416Z,2.4
2023-03-06T06:47:21.627Z,2.3
2023-03-06T06:47:59.440Z,2.4
2023-03-06T06:49:00.204Z,2.3
2023-03-06T06:49:59.709Z,2.4
2023-03-06T06:50:59.287Z,2.4
2023-03-06T06:51:59.842Z,2.4
2023-03-06T06:52:59.437Z,2.5
2023-03-06T06:54:00.036Z,2.5
2023-03-06T06:54:59.682Z,2.5
2023-03-06T06:55:59.214Z,2.4
2023-03-06T06:56:59.795Z,2.4
2023-03-06T06:57:59.387Z,2.4
2023-03-06T06:59:14.135Z,2.4
2023-03-06T06:59:59.545Z,2.4
2023-03-06T07:00:59.143Z,2.4
2023-03-06T07:01:59.717Z,2.5
2023-03-06T07:02:59.307Z,2.5
2023-03-06T07:03:59.937Z,2.6
2023-03-06T07:05:04.893Z,2.6
2023-03-06T07:06:00.127Z,2.6
2023-03-06T07:06:59.724Z,2.6
2023-03-06T07:07:59.326Z,2.7
2023-03-06T07:08:59.930Z,2.6
2023-03-06T07:09:59.544Z,2.8
2023-03-06T07:11:00.152Z,2.8
2023-03-06T07:11:59.746Z,2.8
2023-03-06T07:12:59.339Z,2.6
2023-03-06T07:13:59.919Z,2.6
2023-03-06T07:14:59.512Z,2.7
2023-03-06T07:16:00.260Z,2.8
2023-03-06T07:16:59.875Z,2.7
2023-03-06T07:17:59.349Z,2.6
2023-03-06T07:18:59.912Z,2.7
2023-03-06T07:19:59.511Z,2.7
2023-03-06T07:21:01.371Z,2.8
2023-03-06T07:22:00.050Z,2.7
2023-03-06T07:22:59.331Z,2.7
2023-03-06T07:23:59.899Z,2.7
2023-03-06T07:24:59.490Z,2.8
2023-03-06T07:26:00.113Z,2.8
2023-03-06T07:26:59.753Z,2.9
2023-03-06T07:27:59.386Z,2.8
2023-03-06T07:28:59.909Z,2.7
2023-03-06T07:29:59.503Z,2.7
2023-03-06T07:31:00.124Z,2.8
2023-03-06T07:31:59.890Z,2.8
2023-03-06T07:32:59.348Z,2.8
2023-03-06T07:34:00.496Z,2.8
2023-03-06T07:35:17.332Z,2.7
2023-03-06T07:35:59.255Z,2.8
2023-03-06T07:36:59.735Z,2.8
2023-03-06T07:37:59.345Z,2.9
2023-03-06T07:38:59.933Z,2.9
2023-03-06T07:39:59.521Z,2.9
2023-03-06T07:41:00.132Z,3
2023-03-06T07:41:59.769Z,3
2023-03-06T07:43:13.157Z,2.9
2023-03-06T07:43:59.917Z,2.8
2023-03-06T07:44:59.525Z,2.8
2023-03-06T07:46:00.107Z,2.8
2023-03-06T07:46:59.701Z,2.8
2023-03-06T07:47:59.295Z,2.8
2023-03-06T07:48:59.872Z,2.9
2023-03-06T07:49:59.504Z,2.8
2023-03-06T07:51:00.055Z,2.8
2023-03-06T07:51:59.679Z,2.9
2023-03-06T07:52:59.238Z,3
2023-03-06T07:53:59.821Z,2.9
2023-03-06T07:54:59.429Z,2.8
2023-03-06T07:55:59.986Z,2.8
2023-03-06T07:56:59.601Z,2.8
2023-03-06T07:57:59.164Z,2.8
2023-03-06T07:58:59.787Z,2.8
2023-03-06T07:59:59.374Z,2.8
2023-03-06T08:00:59.962Z,2.8
2023-03-06T08:01:59.580Z,3
2023-03-06T08:03:00.191Z,3
2023-03-06T08:03:59.911Z,3
2023-03-06T08:04:59.390Z,2.9
2023-03-06T08:05:59.971Z,2.9
2023-03-06T08:06:59.682Z,3
2023-03-06T08:08:00.169Z,3.1
2023-03-06T08:08:59.773Z,3.1
2023-03-06T08:09:59.358Z,3.1
2023-03-06T08:10:59.964Z,3.2
2023-03-06T08:11:59.552Z,3.1
2023-03-06T08:13:00.142Z,3
2023-03-06T08:13:59.732Z,2.9
2023-03-06T08:14:59.342Z,2.9
2023-03-06T08:15:59.967Z,3.1
2023-03-06T08:16:59.561Z,3.2
2023-03-06T08:17:59.147Z,3.3
2023-03-06T08:18:59.765Z,3.3
2023-03-06T08:19:59.394Z,3.2
2023-03-06T08:20:59.980Z,3.2
2023-03-06T08:21:59.577Z,3.3
2023-03-06T08:22:59.146Z,3.4
2023-03-06T08:23:59.753Z,3.3
2023-03-06T08:24:59.339Z,3.3
2023-03-06T08:25:59.925Z,3.3
2023-03-06T08:26:59.512Z,3.4
2023-03-06T08:28:00.969Z,3.3
2023-03-06T08:28:59.592Z,3.3
2023-03-06T08:29:59.185Z,3.3
2023-03-06T08:30:59.880Z,3.4
2023-03-06T08:31:59.423Z,3.3
2023-03-06T08:32:59.995Z,3.3
2023-03-06T08:33:59.616Z,3.3
2023-03-06T08:34:59.268Z,3.1
2023-03-06T08:36:01.378Z,3.2
2023-03-06T08:36:59.289Z,3.3
2023-03-06T08:37:59.882Z,3.3
2023-03-06T08:38:59.489Z,3.2
2023-03-06T08:40:00.091Z,3.2
2023-03-06T08:40:59.716Z,3.1
2023-03-06T08:41:59.273Z,3.1
2023-03-06T08:42:59.847Z,3.1
2023-03-06T08:43:59.435Z,3
2023-03-06T08:45:00.038Z,3
2023-03-06T08:45:59.931Z,3.1
2023-03-06T08:46:59.240Z,3.1
2023-03-06T08:47:59.796Z,3.1
2023-03-06T08:48:59.388Z,3.1
2023-03-06T08:50:00.753Z,3.2
2023-03-06T08:50:59.481Z,3
2023-03-06T08:52:00.096Z,2.8
2023-03-06T08:52:59.716Z,2.8
2023-03-06T08:53:59.305Z,2.8
2023-03-06T08:54:59.889Z,2.8
2023-03-06T08:55:59.498Z,2.8
2023-03-06T08:57:00.081Z,2.9
2023-03-06T08:57:59.701Z,2.9
2023-03-06T08:58:59.292Z,2.9
2023-03-06T08:59:59.870Z,3
2023-03-06T09:00:59.527Z,3
2023-03-06T09:02:00.119Z,2.9
2023-03-06T09:02:59.749Z,2.9
2023-03-06T09:03:59.285Z,3
2023-03-06T09:04:59.872Z,3
2023-03-06T09:05:59.463Z,2.9
2023-03-06T09:07:00.107Z,2.9
2023-03-06T09:07:59.712Z,2.9
2023-03-06T09:08:59.289Z,2.9
2023-03-06T09:09:59.860Z,2.9
2023-03-06T09:10:59.452Z,2.9
2023-03-06T09:12:00.036Z,2.9
2023-03-06T09:12:59.656Z,2.9
2023-03-06T09:13:59.220Z,2.8
2023-03-06T09:14:59.794Z,2.8
2023-03-06T09:15:59.390Z,2.9
2023-03-06T09:16:59.998Z,2.8
2023-03-06T09:17:59.647Z,2.8
2023-03-06T09:18:59.198Z,2.8
2023-03-06T09:19:59.769Z,2.6
2023-03-06T09:20:59.359Z,2.6
2023-03-06T09:21:59.939Z,2.6
2023-03-06T09:22:59.534Z,2.8
2023-03-06T09:24:00.146Z,2.8
2023-03-06T09:24:59.756Z,2.8
2023-03-06T09:25:59.356Z,2.9
2023-03-06T09:26:59.926Z,3
2023-03-06T09:28:10.729Z,3
2023-03-06T09:29:00.078Z,3
2023-03-06T09:29:59.713Z,3.2
2023-03-06T09:30:59.508Z,3.3
2023-03-06T09:32:00.132Z,3.5
2023-03-06T09:32:59.560Z,3.6
2023-03-06T09:33:59.157Z,3.6
2023-03-06T09:34:59.864Z,3.4
2023-03-06T09:35:59.430Z,3.3
2023-03-06T09:36:59.975Z,3.3
2023-03-06T09:37:59.584Z,3.3
2023-03-06T09:38:59.150Z,3.1
2023-03-06T09:39:59.734Z,3.1
2023-03-06T09:40:59.344Z,3.1
2023-03-06T09:41:59.939Z,3.2
2023-03-06T09:42:59.527Z,3.2
2023-03-06T09:44:00.128Z,3.2
2023-03-06T09:44:59.721Z,3.3
2023-03-06T09:45:59.394Z,3.3
2023-03-06T09:46:59.918Z,3.2
2023-03-06T09:47:59.512Z,3.2
2023-03-06T09:49:00.095Z,3.2
2023-03-06T09:49:59.692Z,3.1
2023-03-06T09:50:59.741Z,3
2023-03-06T09:51:59.409Z,3
2023-03-06T09:53:00.024Z,3.1
2023-03-06T09:53:59.641Z,3.1
2023-03-06T09:54:59.261Z,3.1
2023-03-06T09:55:59.864Z,3
2023-03-06T09:56:59.453Z,2.9
2023-03-06T09:58:00.089Z,2.9
2023-03-06T09:58:59.693Z,2.9
2023-03-06T09:59:59.275Z,2.9
2023-03-06T10:00:59.868Z,3
2023-03-06T10:01:59.491Z,3
2023-03-06T10:03:00.220Z,3.2
2023-03-06T10:03:59.706Z,3.2
2023-03-06T10:04:59.440Z,3.2
2023-03-06T10:06:02.262Z,3.2
2023-03-06T10:06:59.460Z,3.3
2023-03-06T10:08:00.074Z,3.3
2023-03-06T10:08:59.687Z,3.3
2023-03-06T10:09:59.254Z,3.4
2023-03-06T10:10:59.868Z,3.4
2023-03-06T10:11:59.455Z,3.5
2023-03-06T10:13:00.047Z,3.5
2023-03-06T10:13:59.668Z,3.5
2023-03-06T10:14:59.239Z,3.5
2023-03-06T10:15:59.897Z,3.5
2023-03-06T10:16:59.475Z,3.6
2023-03-06T10:18:00.065Z,3.6
2023-03-06T10:18:59.679Z,3.7
2023-03-06T10:19:59.244Z,3.6
2023-03-06T10:21:10.303Z,3.5
2023-03-06T10:21:59.431Z,3.6
2023-03-06T10:23:02.987Z,3.6
2023-03-06T10:23:59.605Z,3.7
2023-03-06T10:24:59.228Z,3.6
2023-03-06T10:25:59.840Z,3.6
2023-03-06T10:26:59.562Z,3.6
2023-03-06T10:28:00.007Z,3.6
2023-03-06T10:28:59.596Z,3.6
2023-03-06T10:30:03.042Z,3.6
2023-03-06T10:30:59.831Z,3.7
2023-03-06T10:31:59.402Z,3.6
2023-03-06T10:33:00.032Z,3.6
2023-03-06T10:33:59.671Z,3.7
2023-03-06T10:34:59.243Z,3.6
2023-03-06T10:35:59.909Z,3.6
2023-03-06T10:36:59.473Z,3.5
2023-03-06T10:38:00.043Z,3.5
2023-03-06T10:38:59.729Z,3.6
2023-03-06T10:39:59.245Z,3.6
2023-03-06T10:40:59.803Z,3.6
2023-03-06T10:41:59.395Z,3.6
2023-03-06T10:43:11.003Z,3.5
2023-03-06T10:43:59.521Z,3.6
2023-03-06T10:45:00.133Z,3.6
2023-03-06T10:45:59.825Z,3.6
2023-03-06T10:46:59.372Z,3.5
2023-03-06T10:47:59.959Z,3.6
2023-03-06T10:48:59.562Z,3.6
2023-03-06T10:50:00.161Z,3.6
2023-03-06T10:51:02.795Z,3.6
2023-03-06T10:51:59.310Z,3.7
2023-03-06T10:52:59.905Z,3.5
2023-03-06T10:53:59.489Z,3.7
2023-03-06T10:55:00.172Z,3.6
2023-03-06T10:55:59.764Z,3.7
2023-03-06T10:56:59.327Z,3.7
2023-03-06T10:57:59.886Z,3.7
2023-03-06T10:58:59.475Z,3.7
2023-03-06T11:00:00.062Z,3.7
2023-03-06T11:00:59.676Z,3.6
2023-03-06T11:01:59.363Z,3.6
2023-03-06T11:02:59.904Z,3.7
2023-03-06T11:03:59.486Z,3.8
2023-03-06T11:05:00.113Z,4
2023-03-06T11:05:59.739Z,4.1
2023-03-06T11:06:59.328Z,4.1
2023-03-06T11:07:59.973Z,4.2
2023-03-06T11:08:59.587Z,4.2
2023-03-06T11:09:59.165Z,4.3
2023-03-06T11:10:59.771Z,4.3
2023-03-06T11:11:59.360Z,4.4
2023-03-06T11:12:59.937Z,4.3
2023-03-06T11:13:59.580Z,4.3
2023-03-06T11:15:00.125Z,4.4
2023-03-06T11:15:59.761Z,4.5
2023-03-06T11:16:59.358Z,4.4
2023-03-06T11:17:59.997Z,4.3
2023-03-06T11:18:59.610Z,4.2
2023-03-06T11:19:59.205Z,4.2
2023-03-06T11:20:59.767Z,4.2
2023-03-06T11:21:59.365Z,4.2
2023-03-06T11:22:59.936Z,4.1
2023-03-06T11:23:59.526Z,4.1
2023-03-06T11:25:00.131Z,4.1
2023-03-06T11:25:59.723Z,4.1
2023-03-06T11:26:59.335Z,4.1
2023-03-06T11:27:59.902Z,4.3
2023-03-06T11:28:59.538Z,4.3
2023-03-06T11:30:00.154Z,4.4
2023-03-06T11:30:59.786Z,4.5
2023-03-06T11:31:59.319Z,4.4
2023-03-06T11:32:59.897Z,4.6
2023-03-06T11:33:59.497Z,4.6
2023-03-06T11:35:00.219Z,4.7
2023-03-06T11:35:59.861Z,4.6
2023-03-06T11:36:59.413Z,4.7
2023-03-06T11:37:59.919Z,4.8
2023-03-06T11:38:59.515Z,4.9
2023-03-06T11:40:00.142Z,4.8
2023-03-06T11:40:59.746Z,4.8
2023-03-06T11:41:59.353Z,4.6
2023-03-06T11:42:59.945Z,4.8
2023-03-06T11:43:59.532Z,4.8
2023-03-06T11:45:00.805Z,4.9
2023-03-06T11:45:59.457Z,4.9
2023-03-06T11:47:00.123Z,5
2023-03-06T11:47:59.702Z,4.9
2023-03-06T11:48:59.291Z,5
2023-03-06T11:49:59.873Z,5.2
2023-03-06T11:50:59.468Z,5.3
2023-03-06T11:52:00.099Z,5.2
2023-03-06T11:52:59.709Z,5.2
2023-03-06T11:53:59.296Z,5.4
2023-03-06T11:54:59.902Z,5.4
2023-03-06T11:55:59.489Z,5.3
2023-03-06T11:57:00.099Z,5.2
2023-03-06T11:57:59.691Z,5.1
2023-03-06T11:58:59.311Z,4.9
2023-03-06T11:59:59.897Z,4.8
2023-03-06T12:00:59.487Z,4.9
2023-03-06T12:02:00.147Z,4.8
2023-03-06T12:02:59.794Z,4.9
2023-03-06T12:03:59.318Z,4.9
2023-03-06T12:04:59.946Z,5.2
2023-03-06T12:05:59.552Z,5.1
2023-03-06T12:07:00.136Z,5.3
2023-03-06T12:07:59.748Z,5.4
2023-03-06T12:08:59.338Z,5.3
2023-03-06T12:09:59.927Z,5.5
2023-03-06T12:10:59.518Z,5.6
2023-03-06T12:12:00.147Z,5.8
2023-03-06T12:12:59.742Z,5.9
2023-03-06T12:14:00.159Z,6.1
2023-03-06T12:14:59.913Z,6
2023-03-06T12:15:59.505Z,6.1
2023-03-06T12:17:00.113Z,6.2
2023-03-06T12:17:59.711Z,6.1
2023-03-06T12:18:59.302Z,6.1
2023-03-06T12:19:59.912Z,6.2
2023-03-06T12:20:59.503Z,6.2
2023-03-06T12:22:00.096Z,6.2
2023-03-06T12:23:14.373Z,6.3
2023-03-06T12:23:59.290Z,6.5
2023-03-06T12:24:59.909Z,6.5
2023-03-06T12:25:59.502Z,6.6
2023-03-06T12:27:00.089Z,6.6
2023-03-06T12:27:59.685Z,6.6
2023-03-06T12:28:59.274Z,6.5
2023-03-06T12:29:59.876Z,6.6
2023-03-06T12:30:59.579Z,6.7
2023-03-06T12:32:00.119Z,6.6
2023-03-06T12:32:59.719Z,6.5
2023-03-06T12:33:59.299Z,6.6
2023-03-06T12:34:59.884Z,6.2
2023-03-06T12:35:59.495Z,6
2023-03-06T12:37:00.110Z,5.8
2023-03-06T12:37:59.761Z,5.9
2023-03-06T12:38:59.313Z,5.7
2023-03-06T12:39:59.886Z,5.6
2023-03-06T12:40:59.550Z,5.6
2023-03-06T12:42:00.284Z,5.4
2023-03-06T12:42:59.886Z,5.2
2023-03-06T12:43:59.392Z,5.2
2023-03-06T12:45:00.098Z,5.3
2023-03-06T12:45:59.633Z,5.3
2023-03-06T12:46:59.258Z,5.3
2023-03-06T12:47:59.822Z,5.3
2023-03-06T12:48:59.411Z,5.3
2023-03-06T12:49:59.986Z,5.4
2023-03-06T12:50:59.578Z,5.5
2023-03-06T12:51:59.186Z,5.5
2023-03-06T12:52:59.757Z,5.5
2023-03-06T12:53:59.345Z,5.5
2023-03-06T12:54:59.960Z,5.3
2023-03-06T12:55:59.566Z,5.3
2023-03-06T12:56:59.150Z,5.4
2023-03-06T12:57:59.757Z,5.5
2023-03-06T12:58:59.362Z,5.6
2023-03-06T12:59:59.931Z,5.6
2023-03-06T13:01:04.103Z,5.6
2023-03-06T13:02:00.060Z,5.7
2023-03-06T13:02:59.693Z,5.5
2023-03-06T13:03:59.313Z,5.3
2023-03-06T13:04:59.926Z,5.3
2023-03-06T13:05:59.526Z,5.3
2023-03-06T13:07:00.117Z,5.2
2023-03-06T13:07:59.704Z,5.1
2023-03-06T13:08:59.316Z,5.1
2023-03-06T13:09:59.881Z,5.2
2023-03-06T13:10:59.470Z,5.2
2023-03-06T13:12:00.044Z,5.1
2023-03-06T13:12:59.643Z,5.1
2023-03-06T13:13:59.233Z,5.1
2023-03-06T13:14:59.854Z,5.1
2023-03-06T13:15:59.449Z,5.1
2023-03-06T13:17:00.062Z,5.2
2023-03-06T13:17:59.663Z,5.3
2023-03-06T13:18:59.279Z,5.3
2023-03-06T13:19:59.835Z,5.3
2023-03-06T13:20:59.450Z,5.3
2023-03-06T13:22:00.010Z,5.4
2023-03-06T13:22:59.598Z,5.5
2023-03-06T13:23:59.185Z,5.5
2023-03-06T13:25:03.601Z,5.5
2023-03-06T13:25:59.345Z,5.6
2023-03-06T13:26:59.977Z,5.6
2023-03-06T13:27:59.572Z,5.6
2023-03-06T13:28:59.154Z,5.7
2023-03-06T13:29:59.742Z,5.7
2023-03-06T13:30:59.364Z,5.8
2023-03-06T13:31:59.909Z,5.8
2023-03-06T13:32:59.517Z,5.8
2023-03-06T13:34:00.165Z,5.8
2023-03-06T13:34:59.800Z,5.8
2023-03-06T13:35:59.473Z,5.9
2023-03-06T13:36:59.917Z,5.9
2023-03-06T13:37:59.568Z,6.1
2023-03-06T13:39:00.114Z,6.2
2023-03-06T13:39:59.718Z,6.3
2023-03-06T13:40:59.308Z,6.2
2023-03-06T13:41:59.911Z,6.2
2023-03-06T13:42:59.528Z,6.2
2023-03-06T13:44:00.147Z,6.1
2023-03-06T13:44:59.743Z,6
2023-03-06T13:45:59.350Z,6.1
2023-03-06T13:46:59.919Z,6.1
2023-03-06T13:48:21.354Z,6
2023-03-06T13:49:00.048Z,6
2023-03-06T13:49:59.668Z,6.1
2023-03-06T13:50:59.287Z,6.2